sensor_id;sensor_type;location;lat;lon;timestamp;pressure;altitude;pressure_sealevel;temperature
66027;BMP280;56312;55.976;37.136;2023-03-05T00:04:36;95784.81;;;0.35
66027;BMP280;56312;55.976;37.136;2023-03-05T00:09:42;95782.41;;;0.32
66027;BMP280;56312;55.976;37.136;2023-03-05T00:14:49;95778.09;;;0.34
66027;BMP280;56312;55.976;37.136;2023-03-05T00:19:56;95773.03;;;0.34
66027;BMP280;56312;55.976;37.136;2023-03-05T00:25:03;95773.72;;;0.38
66027;BMP280;56312;55.976;37.136;2023-03-05T00:30:10;95766.25;;;0.36
66027;BMP280;56312;55.976;37.136;2023-03-05T00:35:17;95765.41;;;0.36
66027;BMP280;56312;55.976;37.136;2023-03-05T00:40:23;95760.28;;;0.37
66027;BMP280;56312;55.976;37.136;2023-03-05T00:45:29;95769.56;;;0.37
66027;BMP280;56312;55.976;37.136;2023-03-05T00:50:36;95768.75;;;0.36
66027;BMP280;56312;55.976;37.136;2023-03-05T00:55:42;95768.75;;;0.36
66027;BMP280;56312;55.976;37.136;2023-03-05T01:00:48;95771.50;;;0.32
66027;BMP280;56312;55.976;37.136;2023-03-05T01:05:55;95769.66;;;0.35
66027;BMP280;56312;55.976;37.136;2023-03-05T01:11:02;95770.47;;;0.36
66027;BMP280;56312;55.976;37.136;2023-03-05T01:16:09;95773.03;;;0.34
66027;BMP280;56312;55.976;37.136;2023-03-05T01:21:15;95778.94;;;0.35
66027;BMP280;56312;55.976;37.136;2023-03-05T01:26:21;95775.56;;;0.34
66027;BMP280;56312;55.976;37.136;2023-03-05T01:31:27;95770.53;;;0.34
66027;BMP280;56312;55.976;37.136;2023-03-05T01:36:34;95778.84;;;0.36
66027;BMP280;56312;55.976;37.136;2023-03-05T01:41:40;95773.03;;;0.34
66027;BMP280;56312;55.976;37.136;2023-03-05T01:46:47;95778.09;;;0.34
66027;BMP280;56312;55.976;37.136;2023-03-05T01:57:06;95783.13;;;0.34
66027;BMP280;56312;55.976;37.136;2023-03-05T02:02:21;95772.91;;;0.37
66027;BMP280;56312;55.976;37.136;2023-03-05T02:07:28;95770.53;;;0.34
66027;BMP280;56312;55.976;37.136;2023-03-05T02:12:35;95773.91;;;0.35
66027;BMP280;56312;55.976;37.136;2023-03-05T02:17:42;95775.56;;;0.34
66027;BMP280;56312;55.976;37.136;2023-03-05T02:22:48;95768.84;;;0.35
66027;BMP280;56312;55.976;37.136;2023-03-05T02:27:59;95776.34;;;0.36
66027;BMP280;56312;55.976;37.136;2023-03-05T02:33:12;95770.47;;;0.36
66027;BMP280;56312;55.976;37.136;2023-03-05T02:38:19;95770.34;;;0.39
66027;BMP280;56312;55.976;37.136;2023-03-05T02:43:26;95772.91;;;0.37
66027;BMP280;56312;55.976;37.136;2023-03-05T02:48:32;95775.38;;;0.39
66027;BMP280;56312;55.976;37.136;2023-03-05T02:53:39;95791.38;;;0.38
66027;BMP280;56312;55.976;37.136;2023-03-05T02:58:45;95783.81;;;0.38
66027;BMP280;56312;55.976;37.136;2023-03-05T03:03:52;95786.44;;;0.36
66027;BMP280;56312;55.976;37.136;2023-03-05T03:08:59;95788.81;;;0.39
66027;BMP280;56312;55.976;37.136;2023-03-05T03:14:05;95783.00;;;0.37
66027;BMP280;56312;55.976;37.136;2023-03-05T03:19:11;95788.94;;;0.36
66027;BMP280;56312;55.976;37.136;2023-03-05T03:24:17;95786.34;;;0.38
66027;BMP280;56312;55.976;37.136;2023-03-05T03:29:24;95789.84;;;0.35
66027;BMP280;56312;55.976;37.136;2023-03-05T03:34:30;95800.69;;;0.37
66027;BMP280;56312;55.976;37.136;2023-03-05T03:39:36;95801.56;;;0.36
66027;BMP280;56312;55.976;37.136;2023-03-05T03:44:42;95800.81;;;0.34
66027;BMP280;56312;55.976;37.136;2023-03-05T03:49:52;95798.97;;;0.38
66027;BMP280;56312;55.976;37.136;2023-03-05T03:54:59;95807.34;;;0.38
66027;BMP280;56312;55.976;37.136;2023-03-05T04:00:06;95815.75;;;0.39
66027;BMP280;56312;55.976;37.136;2023-03-05T04:05:14;95816.56;;;0.39
66027;BMP280;56312;55.976;37.136;2023-03-05T04:10:21;95821.63;;;0.39
66027;BMP280;56312;55.976;37.136;2023-03-05T04:15:27;95832.53;;;0.40
66027;BMP280;56312;55.976;37.136;2023-03-05T04:20:33;95845.19;;;0.38
66027;BMP280;56312;55.976;37.136;2023-03-05T04:25:39;95855.28;;;0.38
66027;BMP280;56312;55.976;37.136;2023-03-05T04:30:46;95852.78;;;0.38
66027;BMP280;56312;55.976;37.136;2023-03-05T04:35:52;95863.72;;;0.39
66027;BMP280;56312;55.976;37.136;2023-03-05T04:40:58;95862.81;;;0.40
66027;BMP280;56312;55.976;37.136;2023-03-05T04:46:05;95866.16;;;0.40
66027;BMP280;56312;55.976;37.136;2023-03-05T04:51:11;95878.78;;;0.40
66027;BMP280;56312;55.976;37.136;2023-03-05T04:56:17;95887.97;;;0.41
66027;BMP280;56312;55.976;37.136;2023-03-05T05:01:23;95892.13;;;0.42
66027;BMP280;56312;55.976;37.136;2023-03-05T05:06:29;95900.59;;;0.41
66027;BMP280;56312;55.976;37.136;2023-03-05T05:11:36;95909.06;;;0.40
66027;BMP280;56312;55.976;37.136;2023-03-05T05:16:42;95921.59;;;0.42
66027;BMP280;56312;55.976;37.136;2023-03-05T05:21:48;95922.41;;;0.42
66027;BMP280;56312;55.976;37.136;2023-03-05T05:26:55;95929.13;;;0.43
66027;BMP280;56312;55.976;37.136;2023-03-05T05:32:01;95932.38;;;0.45
66027;BMP280;56312;55.976;37.136;2023-03-05T05:37:08;95936.53;;;0.46
66027;BMP280;56312;55.976;37.136;2023-03-05T05:42:17;95959.25;;;0.46
66027;BMP280;56312;55.976;37.136;2023-03-05T05:47:25;95965.22;;;0.45
66027;BMP280;56312;55.976;37.136;2023-03-05T05:52:31;95969.50;;;0.43
66027;BMP280;56312;55.976;37.136;2023-03-05T05:57:37;95976.13;;;0.46
66027;BMP280;56312;55.976;37.136;2023-03-05T06:02:44;95986.28;;;0.44
66027;BMP280;56312;55.976;37.136;2023-03-05T06:07:50;96001.34;;;0.46
66027;BMP280;56312;55.976;37.136;2023-03-05T06:12:56;96004.56;;;0.49
66027;BMP280;56312;55.976;37.136;2023-03-05T06:18:03;96010.38;;;0.51
66027;BMP280;56312;55.976;37.136;2023-03-05T06:23:09;96014.75;;;0.48
66027;BMP280;56312;55.976;37.136;2023-03-05T06:28:15;96023.13;;;0.48
66027;BMP280;56312;55.976;37.136;2023-03-05T06:33:22;96034.88;;;0.49
66027;BMP280;56312;55.976;37.136;2023-03-05T06:38:29;96034.88;;;0.49
66027;BMP280;56312;55.976;37.136;2023-03-05T06:43:36;96046.59;;;0.50
66027;BMP280;56312;55.976;37.136;2023-03-05T06:48:45;96044.16;;;0.49
66027;BMP280;56312;55.976;37.136;2023-03-05T06:53:52;96051.72;;;0.49
66027;BMP280;56312;55.976;37.136;2023-03-05T06:59:00;96062.59;;;0.51
66027;BMP280;56312;55.976;37.136;2023-03-05T07:04:06;96072.81;;;0.48
66027;BMP280;56312;55.976;37.136;2023-03-05T07:09:13;96074.31;;;0.52
66027;BMP280;56312;55.976;37.136;2023-03-05T07:14:20;96083.59;;;0.51
66027;BMP280;56312;55.976;37.136;2023-03-05T07:19:26;96089.47;;;0.52
66027;BMP280;56312;55.976;37.136;2023-03-05T07:24:32;96097.03;;;0.52
66027;BMP280;56312;55.976;37.136;2023-03-05T07:29:39;96107.06;;;0.53
66027;BMP280;56312;55.976;37.136;2023-03-05T07:34:45;96107.06;;;0.53
66027;BMP280;56312;55.976;37.136;2023-03-05T07:39:51;96112.00;;;0.56
66027;BMP280;56312;55.976;37.136;2023-03-05T07:44:58;96119.44;;;0.59
66027;BMP280;56312;55.976;37.136;2023-03-05T07:50:04;96134.44;;;0.62
66027;BMP280;56312;55.976;37.136;2023-03-05T07:55:11;96140.25;;;0.64
66027;BMP280;56312;55.976;37.136;2023-03-05T08:00:17;96150.25;;;0.67
66027;BMP280;56312;55.976;37.136;2023-03-05T08:05:24;96156.19;;;0.66
66027;BMP280;56312;55.976;37.136;2023-03-05T08:10:30;96172.91;;;0.68
66027;BMP280;56312;55.976;37.136;2023-03-05T08:15:37;96176.19;;;0.70
66027;BMP280;56312;55.976;37.136;2023-03-05T08:20:43;96188.03;;;0.68
66027;BMP280;56312;55.976;37.136;2023-03-05T08:25:49;96186.28;;;0.70
66027;BMP280;56312;55.976;37.136;2023-03-05T08:30:55;96209.03;;;0.70
66027;BMP280;56312;55.976;37.136;2023-03-05T08:36:02;96218.44;;;0.67
66027;BMP280;56312;55.976;37.136;2023-03-05T08:41:08;96229.41;;;0.66
66027;BMP280;56312;55.976;37.136;2023-03-05T08:46:15;96240.34;;;0.66
66027;BMP280;56312;55.976;37.136;2023-03-05T08:51:22;96245.31;;;0.68
66027;BMP280;56312;55.976;37.136;2023-03-05T08:56:30;96254.53;;;0.69
66027;BMP280;56312;55.976;37.136;2023-03-05T09:01:37;96266.28;;;0.70
66027;BMP280;56312;55.976;37.136;2023-03-05T09:06:43;96275.53;;;0.69
66027;BMP280;56312;55.976;37.136;2023-03-05T09:11:49;96288.25;;;0.68
66027;BMP280;56312;55.976;37.136;2023-03-05T09:16:56;96291.69;;;0.65
66027;BMP280;56312;55.976;37.136;2023-03-05T09:22:03;96301.66;;;0.70
66027;BMP280;56312;55.976;37.136;2023-03-05T09:27:09;96314.28;;;0.70
66027;BMP280;56312;55.976;37.136;2023-03-05T09:32:16;96317.63;;;0.70
66027;BMP280;56312;55.976;37.136;2023-03-05T09:37:22;96327.13;;;0.64
66027;BMP280;56312;55.976;37.136;2023-03-05T09:58:54;96354.00;;;0.65
66027;BMP280;56312;55.976;37.136;2023-03-05T10:04:15;96351.56;;;0.63
66027;BMP280;56312;55.976;37.136;2023-03-05T10:09:45;96362.47;;;0.64
66027;BMP280;56312;55.976;37.136;2023-03-05T10:15:02;96375.88;;;0.66
66027;BMP280;56312;55.976;37.136;2023-03-05T10:47:52;96412.19;;;0.62
66027;BMP280;56312;55.976;37.136;2023-03-05T10:58:39;96424.78;;;0.63
66027;BMP280;56312;55.976;37.136;2023-03-05T11:14:26;96447.28;;;0.69
66027;BMP280;56312;55.976;37.136;2023-03-05T11:19:38;96453.28;;;0.67
66027;BMP280;56312;55.976;37.136;2023-03-05T11:24:44;96459.22;;;0.66
66027;BMP280;56312;55.976;37.136;2023-03-05T11:30:17;96463.50;;;0.64
66027;BMP280;56312;55.976;37.136;2023-03-05T11:35:33;96469.31;;;0.66
66027;BMP280;56312;55.976;37.136;2023-03-05T11:40:42;96482.63;;;0.69
66027;BMP280;56312;55.976;37.136;2023-03-05T11:45:59;96484.41;;;0.67
66027;BMP280;56312;55.976;37.136;2023-03-05T11:51:18;96492.06;;;0.66
66027;BMP280;56312;55.976;37.136;2023-03-05T11:56:29;96510.59;;;0.65
66027;BMP280;56312;55.976;37.136;2023-03-05T12:01:44;96513.81;;;0.68
66027;BMP280;56312;55.976;37.136;2023-03-05T12:06:53;96524.88;;;0.66
66027;BMP280;56312;55.976;37.136;2023-03-05T12:17:48;96536.72;;;0.64
66027;BMP280;56312;55.976;37.136;2023-03-05T12:23:20;96539.25;;;0.64
66027;BMP280;56312;55.976;37.136;2023-03-05T12:33:40;96550.13;;;0.66
66027;BMP280;56312;55.976;37.136;2023-03-05T12:38:48;96553.59;;;0.63
66027;BMP280;56312;55.976;37.136;2023-03-05T12:59:38;96569.47;;;0.67
66027;BMP280;56312;55.976;37.136;2023-03-05T13:04:48;96571.97;;;0.67
66027;BMP280;56312;55.976;37.136;2023-03-05T13:09:58;96578.69;;;0.68
66027;BMP280;56312;55.976;37.136;2023-03-05T13:15:05;96587.97;;;0.67
66027;BMP280;56312;55.976;37.136;2023-03-05T13:25:44;96589.75;;;0.64
66027;BMP280;56312;55.976;37.136;2023-03-05T13:30:54;96588.88;;;0.65
66027;BMP280;56312;55.976;37.136;2023-03-05T13:36:03;96604.91;;;0.64
66027;BMP280;56312;55.976;37.136;2023-03-05T13:46:23;96600.69;;;0.64
66027;BMP280;56312;55.976;37.136;2023-03-05T13:51:51;96611.56;;;0.66
66027;BMP280;56312;55.976;37.136;2023-03-05T13:56:58;96608.97;;;0.68
66027;BMP280;56312;55.976;37.136;2023-03-05T14:02:16;96621.63;;;0.68
66027;BMP280;56312;55.976;37.136;2023-03-05T14:12:42;96632.59;;;0.67
66027;BMP280;56312;55.976;37.136;2023-03-05T14:17:48;96641.81;;;0.68
66027;BMP280;56312;55.976;37.136;2023-03-05T14:22:56;96642.72;;;0.65
66027;BMP280;56312;55.976;37.136;2023-03-05T14:28:05;96651.91;;;0.68
66027;BMP280;56312;55.976;37.136;2023-03-05T14:33:32;96652.84;;;0.65
66027;BMP280;56312;55.976;37.136;2023-03-05T14:38:40;96648.50;;;0.69
66027;BMP280;56312;55.976;37.136;2023-03-05T14:43:47;96644.34;;;0.68
66027;BMP280;56312;55.976;37.136;2023-03-05T14:48:53;96653.56;;;0.69
66027;BMP280;56312;55.976;37.136;2023-03-05T14:54:00;96654.28;;;0.72
66027;BMP280;56312;55.976;37.136;2023-03-05T14:59:07;96662.53;;;0.77
66027;BMP280;56312;55.976;37.136;2023-03-05T15:04:13;96656.78;;;0.74
66027;BMP280;56312;55.976;37.136;2023-03-05T15:09:23;96671.22;;;0.70
66027;BMP280;56312;55.976;37.136;2023-03-05T15:14:31;96677.75;;;0.76
66027;BMP280;56312;55.976;37.136;2023-03-05T15:19:37;96688.00;;;0.71
66027;BMP280;56312;55.976;37.136;2023-03-05T15:24:44;96690.47;;;0.73
66027;BMP280;56312;55.976;37.136;2023-03-05T15:29:50;96700.56;;;0.73
66027;BMP280;56312;55.976;37.136;2023-03-05T15:34:57;96701.41;;;0.73
66027;BMP280;56312;55.976;37.136;2023-03-05T15:40:04;96710.69;;;0.73
66027;BMP280;56312;55.976;37.136;2023-03-05T15:45:10;96718.31;;;0.71
66027;BMP280;56312;55.976;37.136;2023-03-05T15:50:17;96719.19;;;0.70
66027;BMP280;56312;55.976;37.136;2023-03-05T15:55:25;96720.78;;;0.73
66027;BMP280;56312;55.976;37.136;2023-03-05T16:00:32;96718.31;;;0.71
66027;BMP280;56312;55.976;37.136;2023-03-05T16:05:41;96731.00;;;0.70
66027;BMP280;56312;55.976;37.136;2023-03-05T16:10:47;96729.25;;;0.72
66027;BMP280;56312;55.976;37.136;2023-03-05T16:15:54;96731.81;;;0.70
66027;BMP280;56312;55.976;37.136;2023-03-05T16:21:02;96737.69;;;0.71
66027;BMP280;56312;55.976;37.136;2023-03-05T16:26:08;96746.16;;;0.70
66027;BMP280;56312;55.976;37.136;2023-03-05T16:31:15;96747.00;;;0.70
66027;BMP280;56312;55.976;37.136;2023-03-05T16:36:23;96755.38;;;0.71
66027;BMP280;56312;55.976;37.136;2023-03-05T16:41:31;96751.97;;;0.72
66027;BMP280;56312;55.976;37.136;2023-03-05T16:46:38;96751.97;;;0.72
66027;BMP280;56312;55.976;37.136;2023-03-05T16:51:46;96756.28;;;0.68
66027;BMP280;56312;55.976;37.136;2023-03-05T16:56:53;96752.13;;;0.67
66027;BMP280;56312;55.976;37.136;2023-03-05T17:01:59;96752.13;;;0.67
66027;BMP280;56312;55.976;37.136;2023-03-05T17:07:05;96758.00;;;0.68
66027;BMP280;56312;55.976;37.136;2023-03-05T17:12:12;96758.06;;;0.66
66027;BMP280;56312;55.976;37.136;2023-03-05T17:17:18;96763.97;;;0.65
66027;BMP280;56312;55.976;37.136;2023-03-05T17:22:25;96769.06;;;0.64
66027;BMP280;56312;55.976;37.136;2023-03-05T17:27:31;96765.72;;;0.63
66027;BMP280;56312;55.976;37.136;2023-03-05T17:32:38;96757.34;;;0.63
66027;BMP280;56312;55.976;37.136;2023-03-05T17:37:45;96761.59;;;0.61
66027;BMP280;56312;55.976;37.136;2023-03-05T17:42:52;96767.44;;;0.63
66027;BMP280;56312;55.976;37.136;2023-03-05T17:47:58;96775.00;;;0.63
66027;BMP280;56312;55.976;37.136;2023-03-05T17:53:04;96761.59;;;0.61
66027;BMP280;56312;55.976;37.136;2023-03-05T17:58:11;96763.38;;;0.57
66027;BMP280;56312;55.976;37.136;2023-03-05T18:03:17;96765.06;;;0.58
66027;BMP280;56312;55.976;37.136;2023-03-05T18:08:24;96769.22;;;0.59
66027;BMP280;56312;55.976;37.136;2023-03-05T18:13:30;96764.94;;;0.61
66027;BMP280;56312;55.976;37.136;2023-03-05T18:18:36;96763.22;;;0.62
66027;BMP280;56312;55.976;37.136;2023-03-05T18:23:42;96767.53;;;0.60
66027;BMP280;56312;55.976;37.136;2023-03-05T18:28:49;96769.25;;;0.58
66027;BMP280;56312;55.976;37.136;2023-03-05T18:33:55;96779.41;;;0.56
66027;BMP280;56312;55.976;37.136;2023-03-05T18:39:02;96772.72;;;0.55
66027;BMP280;56312;55.976;37.136;2023-03-05T18:44:08;96789.56;;;0.55
66027;BMP280;56312;55.976;37.136;2023-03-05T18:49:15;96784.56;;;0.53
66027;BMP280;56312;55.976;37.136;2023-03-05T18:54:21;96786.94;;;0.58
66027;BMP280;56312;55.976;37.136;2023-03-05T18:59:28;96788.69;;;0.56
66027;BMP280;56312;55.976;37.136;2023-03-05T19:04:36;96798.75;;;0.57
66027;BMP280;56312;55.976;37.136;2023-03-05T19:09:45;96793.75;;;0.56
66027;BMP280;56312;55.976;37.136;2023-03-05T19:15:07;96799.69;;;0.55
66027;BMP280;56312;55.976;37.136;2023-03-05T19:20:14;96794.66;;;0.53
66027;BMP280;56312;55.976;37.136;2023-03-05T19:25:21;96798.81;;;0.56
66027;BMP280;56312;55.976;37.136;2023-03-05T19:30:27;96800.53;;;0.54
66027;BMP280;56312;55.976;37.136;2023-03-05T19:35:34;96805.59;;;0.54
66027;BMP280;56312;55.976;37.136;2023-03-05T19:40:40;96798.94;;;0.52
66027;BMP280;56312;55.976;37.136;2023-03-05T19:45:47;96797.16;;;0.55
66027;BMP280;56312;55.976;37.136;2023-03-05T19:50:53;96803.91;;;0.54
66027;BMP280;56312;55.976;37.136;2023-03-05T19:56:02;96805.59;;;0.54
66027;BMP280;56312;55.976;37.136;2023-03-05T20:01:13;96813.28;;;0.51
66027;BMP280;56312;55.976;37.136;2023-03-05T20:06:25;96806.47;;;0.53
66027;BMP280;56312;55.976;37.136;2023-03-05T20:11:32;96803.16;;;0.51
66027;BMP280;56312;55.976;37.136;2023-03-05T20:16:39;96802.22;;;0.53
66027;BMP280;56312;55.976;37.136;2023-03-05T20:21:46;96809.00;;;0.53
66027;BMP280;56312;55.976;37.136;2023-03-05T20:26:52;96812.41;;;0.52
66027;BMP280;56312;55.976;37.136;2023-03-05T20:31:58;96814.84;;;0.53
66027;BMP280;56312;55.976;37.136;2023-03-05T20:37:05;96815.69;;;0.54
66027;BMP280;56312;55.976;37.136;2023-03-05T20:42:12;96801.38;;;0.54
66027;BMP280;56312;55.976;37.136;2023-03-05T20:47:18;96807.34;;;0.52
66027;BMP280;56312;55.976;37.136;2023-03-05T20:52:40;96808.06;;;0.55
66027;BMP280;56312;55.976;37.136;2023-03-05T20:57:47;96817.34;;;0.55
66027;BMP280;56312;55.976;37.136;2023-03-05T21:02:53;96812.31;;;0.55
66027;BMP280;56312;55.976;37.136;2023-03-05T21:08:01;96823.25;;;0.54
66027;BMP280;56312;55.976;37.136;2023-03-05T21:13:11;96809.78;;;0.55
66027;BMP280;56312;55.976;37.136;2023-03-05T21:18:18;96809.88;;;0.52
66027;BMP280;56312;55.976;37.136;2023-03-05T21:23:24;96818.25;;;0.52
66027;BMP280;56312;55.976;37.136;2023-03-05T21:28:30;96821.63;;;0.53
66027;BMP280;56312;55.976;37.136;2023-03-05T21:33:37;96831.72;;;0.53
66027;BMP280;56312;55.976;37.136;2023-03-05T21:38:44;96830.84;;;0.54
66027;BMP280;56312;55.976;37.136;2023-03-05T21:43:51;96839.28;;;0.53
66027;BMP280;56312;55.976;37.136;2023-03-05T21:48:57;96827.53;;;0.52
66027;BMP280;56312;55.976;37.136;2023-03-05T21:54:04;96841.88;;;0.52
66027;BMP280;56312;55.976;37.136;2023-03-05T21:59:10;96836.81;;;0.52
66027;BMP280;56312;55.976;37.136;2023-03-05T22:04:16;96831.72;;;0.53
66027;BMP280;56312;55.976;37.136;2023-03-05T22:09:23;96842.69;;;0.52
66027;BMP280;56312;55.976;37.136;2023-03-05T22:14:29;96834.16;;;0.56
66027;BMP280;56312;55.976;37.136;2023-03-05T22:19:35;96844.34;;;0.53
66027;BMP280;56312;55.976;37.136;2023-03-05T22:24:42;96845.13;;;0.55
66027;BMP280;56312;55.976;37.136;2023-03-05T22:29:48;96845.97;;;0.54
66027;BMP280;56312;55.976;37.136;2023-03-05T22:34:54;96834.91;;;0.58
66027;BMP280;56312;55.976;37.136;2023-03-05T22:40:01;96847.66;;;0.55
66027;BMP280;56312;55.976;37.136;2023-03-05T22:45:07;96845.97;;;0.54
66027;BMP280;56312;55.976;37.136;2023-03-05T22:50:14;96851.91;;;0.53
66027;BMP280;56312;55.976;37.136;2023-03-05T22:55:21;96852.78;;;0.52
66027;BMP280;56312;55.976;37.136;2023-03-05T23:00:28;96850.22;;;0.53
66027;BMP280;56312;55.976;37.136;2023-03-05T23:05:34;96851.03;;;0.54
66027;BMP280;56312;55.976;37.136;2023-03-05T23:10:43;96845.28;;;0.51
66027;BMP280;56312;55.976;37.136;2023-03-05T23:15:49;96851.16;;;0.51
66027;BMP280;56312;55.976;37.136;2023-03-05T23:20:56;96846.13;;;0.50
66027;BMP280;56312;55.976;37.136;2023-03-05T23:26:02;96848.66;;;0.50
66027;BMP280;56312;55.976;37.136;2023-03-05T23:31:09;96842.78;;;0.49
66027;BMP280;56312;55.976;37.136;2023-03-05T23:36:15;96846.91;;;0.52
66027;BMP280;56312;55.976;37.136;2023-03-05T23:41:24;96848.56;;;0.52
66027;BMP280;56312;55.976;37.136;2023-03-05T23:46:30;96831.78;;;0.52
66027;BMP280;56312;55.976;37.136;2023-03-05T23:51:37;96838.56;;;0.50
66027;BMP280;56312;55.976;37.136;2023-03-05T23:56:43;96841.00;;;0.52
